DUGK1: Little Walnut Rvr nr Bois d'Arc KS

Data processed at Wed Jun 19 2019 23:50


All information presented herein is the property of the government of the United States of America and may be revised or deleted at any time without prior notice.
Dissemination of this information without the expressed written consent of the Public Affairs Office, Tulsa District U.S. Army Corps of Engineers is strictly prohibited.
These data are gathered electronically and, as presented, have not undergone any form of quality control. These data are not guaranteed to be valid or correct.
Go to home page.
Go to station list.
Go to home page.

Downstream station:


Previous Day
Next Day
Current Day
    
SHEF ID:       DUGK1     Little Walnut Rvr nr Bois d'Arc
STATION TYPE:  

               PRECIP     STAGE  RIV-FLOW   VOLTAGE  BAT-LOAD
                   in        ft       cfs      volt      volt
              Ccp-Rev   Ccp-Rev   Ccp-Rev   Ccp-Rev   Ccp-Rev
(US/Central)
06/19 00:00      0.00     13.09      2888     12.97     12.81
06/19 01:00      0.00     14.16      3505     12.89     12.81
06/19 02:00      0.60     14.92      3987     12.89     12.73
06/19 03:00      0.06     15.72      4535     12.89     12.73
06/19 04:00      0.07     15.99      4729     12.81     12.73
06/19 05:00      0.06     16.00      4736     12.81     12.65
06/19 06:00      0.00     15.79      4585     12.81     12.65
06/19 07:00      0.00     15.43      4331     12.81     12.65
06/19 08:00      0.00     15.10      4106     12.89     12.65
06/19 09:00      0.00     14.82      3921     13.05     12.89
06/19 10:00      0.00     14.62      3792     13.76     13.29
06/19 11:00      0.00     14.30      3591     13.60     13.29
06/19 12:00      0.00     13.86      3325     13.37     13.29
06/19 13:00      0.00     13.32      3014     13.37     13.29
06/19 14:00      0.00     12.87      2770     13.84     13.29
06/19 15:00      0.00     12.50      2577     13.68     13.21
06/19 16:00      0.00     12.07      2364     13.37     13.21
06/19 17:00      0.00     11.72      2199     13.60     13.29
06/19 18:00      0.00     11.53      2112     13.44     13.29
06/19 19:00      0.00     11.29      2005     13.21     13.13
06/19 20:00      0.00     11.11      1928     13.05     12.97
06/19 21:00      0.00     10.91      1843     13.05     12.89
06/19 22:00      0.00     10.82      1806     13.05     12.89
06/19 23:00      0.00     10.71      1757     12.97     12.89